createdAt,value
2019-04-04T00:00:25.457Z,0.00
2019-04-04T00:01:25.639Z,0.00
2019-04-04T00:02:25.824Z,0.00
2019-04-04T00:03:26.006Z,0.00
2019-04-04T00:04:26.191Z,0.00
2019-04-04T00:05:26.374Z,0.00
2019-04-04T00:06:27.009Z,0.00
2019-04-04T00:07:28.726Z,0.00
2019-04-04T00:08:26.930Z,0.00
2019-04-04T00:09:27.116Z,0.00
2019-04-04T00:10:27.298Z,0.00
2019-04-04T00:11:27.482Z,0.00
2019-04-04T00:12:27.663Z,0.00
2019-04-04T00:13:27.847Z,0.00
2019-04-04T00:14:28.029Z,0.00
2019-04-04T00:15:28.215Z,0.00
2019-04-04T00:16:28.396Z,0.00
2019-04-04T00:17:28.575Z,0.00
2019-04-04T00:18:28.758Z,0.00
2019-04-04T00:19:29.948Z,0.00
2019-04-04T00:20:29.894Z,0.00
2019-04-04T00:21:29.308Z,0.00
2019-04-04T00:22:29.496Z,0.00
2019-04-04T00:23:29.677Z,0.00
2019-04-04T00:24:29.866Z,0.00
2019-04-04T00:25:30.069Z,0.00
2019-04-04T00:26:30.236Z,0.00
2019-04-04T00:27:30.428Z,0.00
2019-04-04T00:28:30.617Z,0.00
2019-04-04T00:29:30.799Z,0.00
2019-04-04T00:30:30.976Z,0.00
2019-04-04T00:31:31.160Z,0.00
2019-04-04T00:32:31.344Z,0.00
2019-04-04T00:33:31.537Z,0.00
2019-04-04T00:34:31.711Z,0.00
2019-04-04T00:35:31.897Z,0.00
2019-04-04T00:36:34.058Z,0.00
2019-04-04T00:37:32.269Z,0.00
2019-04-04T00:38:32.455Z,0.00
2019-04-04T00:39:32.643Z,0.00
2019-04-04T00:40:32.822Z,0.00
2019-04-04T00:41:33.007Z,0.00
2019-04-04T00:42:33.190Z,0.00
2019-04-04T00:43:33.376Z,0.00
2019-04-04T00:44:33.562Z,0.00
2019-04-04T00:45:33.752Z,0.00
2019-04-04T00:46:33.941Z,0.00
2019-04-04T00:47:34.130Z,0.00
2019-04-04T00:48:34.808Z,0.00
2019-04-04T00:49:35.532Z,0.00
2019-04-04T00:50:34.909Z,0.00
2019-04-04T00:51:34.874Z,0.00
2019-04-04T00:52:35.056Z,0.00
2019-04-04T00:53:35.241Z,0.00
2019-04-04T00:54:35.424Z,0.00
2019-04-04T00:55:35.608Z,0.00
2019-04-04T00:56:35.791Z,0.00
2019-04-04T00:57:35.970Z,0.00
2019-04-04T00:58:36.157Z,0.00
2019-04-04T00:59:36.333Z,0.00
2019-04-04T01:00:36.513Z,0.00
2019-04-04T01:01:36.701Z,0.00
2019-04-04T01:02:36.886Z,0.00
2019-04-04T01:03:37.069Z,0.00
2019-04-04T01:04:37.254Z,0.00
2019-04-04T01:05:37.444Z,0.00
2019-04-04T01:06:37.619Z,0.00
2019-04-04T01:07:37.802Z,0.00
2019-04-04T01:08:38.799Z,0.00
2019-04-04T01:09:38.172Z,0.00
2019-04-04T01:10:38.348Z,0.00
2019-04-04T01:11:38.528Z,0.00
2019-04-04T01:12:38.715Z,0.00
2019-04-04T01:13:38.896Z,0.00
2019-04-04T01:14:39.080Z,0.00
2019-04-04T01:15:39.266Z,0.00
2019-04-04T01:16:39.449Z,0.00
2019-04-04T01:17:39.633Z,0.00
2019-04-04T01:18:39.825Z,0.00
2019-04-04T01:19:40.012Z,0.00
2019-04-04T01:20:40.191Z,0.00
2019-04-04T01:21:40.455Z,0.00
2019-04-04T01:22:40.558Z,0.00
2019-04-04T01:23:40.740Z,0.00
2019-04-04T01:24:40.935Z,0.00
2019-04-04T01:25:41.122Z,0.00
2019-04-04T01:26:41.301Z,0.00
2019-04-04T01:27:41.487Z,0.00
2019-04-04T01:28:41.681Z,0.00
2019-04-04T01:29:41.856Z,0.00
2019-04-04T01:30:43.690Z,0.00
2019-04-04T01:31:42.226Z,0.00
2019-04-04T01:32:42.413Z,0.00
2019-04-04T01:33:42.598Z,0.00
2019-04-04T01:34:42.771Z,0.00
2019-04-04T01:35:42.952Z,0.00
2019-04-04T01:36:43.135Z,0.00
2019-04-04T01:37:43.324Z,0.00
2019-04-04T01:38:43.508Z,0.00
2019-04-04T01:39:43.689Z,0.00
2019-04-04T01:40:43.873Z,0.00
2019-04-04T01:41:44.062Z,0.00
2019-04-04T01:42:44.248Z,0.00
2019-04-04T01:43:44.441Z,0.00
2019-04-04T01:44:44.615Z,0.00
2019-04-04T01:45:45.008Z,0.00
2019-04-04T01:46:46.085Z,0.00
2019-04-04T01:47:45.952Z,0.00
2019-04-04T01:48:45.355Z,0.00
2019-04-04T01:49:45.537Z,0.00
2019-04-04T01:50:45.728Z,0.00
2019-04-04T01:51:45.910Z,0.00
2019-04-04T01:52:46.093Z,0.00
2019-04-04T01:53:46.277Z,0.00
2019-04-04T01:54:46.465Z,0.00
2019-04-04T01:55:46.636Z,0.00
2019-04-04T01:56:46.828Z,0.00
2019-04-04T01:57:47.014Z,0.00
2019-04-04T01:58:47.197Z,0.00
2019-04-04T01:59:47.389Z,0.00
2019-04-04T02:00:47.564Z,0.00
2019-04-04T02:01:47.741Z,0.00
2019-04-04T02:02:47.929Z,0.00
2019-04-04T02:03:48.115Z,0.00
2019-04-04T02:04:48.309Z,0.00
2019-04-04T02:05:48.486Z,0.00
2019-04-04T02:06:48.670Z,0.00
2019-04-04T02:07:48.851Z,0.00
2019-04-04T02:08:49.038Z,0.00
2019-04-04T02:09:49.221Z,0.00
2019-04-04T02:10:49.404Z,0.00
2019-04-04T02:11:49.588Z,0.00
2019-04-04T02:12:49.773Z,0.00
2019-04-04T02:13:49.955Z,0.00
2019-04-04T02:14:50.139Z,0.00
2019-04-04T02:15:50.324Z,0.00
2019-04-04T02:16:51.633Z,0.00
2019-04-04T02:17:52.667Z,0.00
2019-04-04T02:18:53.453Z,0.00
2019-04-04T02:19:51.061Z,0.00
2019-04-04T02:20:51.254Z,0.00
2019-04-04T02:21:51.425Z,0.00
2019-04-04T02:22:51.612Z,0.00
2019-04-04T02:23:51.794Z,0.00
2019-04-04T02:24:51.980Z,0.00
2019-04-04T02:25:52.165Z,0.00
2019-04-04T02:26:52.351Z,0.00
2019-04-04T02:27:52.532Z,0.00
2019-04-04T02:28:52.725Z,0.00
2019-04-04T02:29:52.914Z,0.00
2019-04-04T02:30:53.097Z,0.00
2019-04-04T02:31:54.416Z,0.00
2019-04-04T02:32:53.469Z,0.00
2019-04-04T02:33:53.648Z,0.00
2019-04-04T02:34:53.838Z,0.00
2019-04-04T02:35:54.018Z,0.00
2019-04-04T02:36:54.197Z,0.00
2019-04-04T02:37:55.418Z,0.00
2019-04-04T02:38:54.557Z,0.00
2019-04-04T02:39:54.743Z,0.00
2019-04-04T02:40:54.931Z,0.00
2019-04-04T02:41:55.111Z,0.00
2019-04-04T02:42:55.605Z,0.00
2019-04-04T02:43:59.423Z,0.00
2019-04-04T02:44:55.678Z,0.00
2019-04-04T02:45:55.864Z,0.00
2019-04-04T02:46:56.047Z,0.00
2019-04-04T02:47:56.242Z,0.00
2019-04-04T02:48:57.059Z,0.00
2019-04-04T02:50:00.576Z,0.00
2019-04-04T02:50:56.794Z,0.00
2019-04-04T02:51:56.972Z,0.00
2019-04-04T02:52:57.154Z,0.00
2019-04-04T02:53:57.332Z,0.00
2019-04-04T02:54:58.597Z,0.00
2019-04-04T02:56:02.222Z,0.00
2019-04-04T02:56:57.878Z,0.00
2019-04-04T02:57:58.071Z,0.00
2019-04-04T02:58:58.244Z,0.00
2019-04-04T02:59:58.423Z,0.00
2019-04-04T03:01:00.278Z,0.00
2019-04-04T03:01:58.798Z,0.00
2019-04-04T03:02:58.967Z,0.00
2019-04-04T03:03:59.154Z,0.00
2019-04-04T03:04:59.350Z,0.00
2019-04-04T03:05:59.517Z,0.00
2019-04-04T03:06:59.709Z,0.00
2019-04-04T03:08:03.076Z,0.00
2019-04-04T03:09:00.081Z,0.00
2019-04-04T03:10:00.263Z,0.00
2019-04-04T03:11:00.430Z,0.00
2019-04-04T03:12:00.614Z,0.00
2019-04-04T03:13:00.798Z,0.00
2019-04-04T03:14:03.286Z,0.00
2019-04-04T03:15:01.161Z,0.00
2019-04-04T03:16:01.345Z,0.00
2019-04-04T03:17:01.531Z,0.00
2019-04-04T03:18:04.431Z,0.00
2019-04-04T03:19:01.898Z,0.00
2019-04-04T03:20:02.082Z,0.00
2019-04-04T03:21:02.265Z,0.00
2019-04-04T03:22:02.456Z,0.00
2019-04-04T03:23:02.635Z,0.00
2019-04-04T03:24:06.161Z,0.00
2019-04-04T03:25:02.996Z,0.00
2019-04-04T03:26:03.182Z,0.00
2019-04-04T03:27:03.360Z,0.00
2019-04-04T03:28:03.555Z,0.00
2019-04-04T03:29:05.457Z,0.00
2019-04-04T03:30:03.913Z,0.00
2019-04-04T03:31:04.259Z,0.00
2019-04-04T03:32:04.277Z,0.00
2019-04-04T03:33:04.457Z,0.00
2019-04-04T03:34:11.495Z,0.00
2019-04-04T03:35:04.825Z,0.00
2019-04-04T03:36:05.008Z,0.00
2019-04-04T03:37:06.426Z,0.00
2019-04-04T03:38:05.387Z,0.00
2019-04-04T03:39:05.564Z,0.00
2019-04-04T03:40:05.744Z,0.00
2019-04-04T03:41:05.937Z,0.00
2019-04-04T03:42:08.154Z,0.00
2019-04-04T03:43:06.301Z,0.00
2019-04-04T03:44:06.493Z,0.00
2019-04-04T03:45:06.702Z,0.00
2019-04-04T03:46:06.850Z,0.00
2019-04-04T03:47:09.904Z,0.00
2019-04-04T03:48:07.222Z,0.00
2019-04-04T03:49:07.402Z,0.00
2019-04-04T03:50:07.587Z,0.00
2019-04-04T03:51:07.765Z,0.00
2019-04-04T03:52:11.327Z,0.00
2019-04-04T03:53:08.137Z,0.00
2019-04-04T03:54:08.326Z,0.00
2019-04-04T03:55:08.517Z,0.00
2019-04-04T03:56:08.710Z,0.00
2019-04-04T03:57:12.264Z,0.00
2019-04-04T03:58:09.070Z,0.00
2019-04-04T03:59:09.249Z,0.00
2019-04-04T04:00:09.454Z,0.00
2019-04-04T04:01:12.057Z,0.00
2019-04-04T04:02:09.812Z,0.00
2019-04-04T04:03:09.980Z,0.00
2019-04-04T04:04:10.176Z,0.00
2019-04-04T04:05:10.359Z,0.00
2019-04-04T04:06:10.578Z,0.00
2019-04-04T04:07:13.908Z,0.00
2019-04-04T04:08:10.907Z,0.00
2019-04-04T04:09:11.096Z,0.00
2019-04-04T04:10:11.276Z,0.00
2019-04-04T04:11:11.462Z,0.00
2019-04-04T04:12:11.650Z,0.00
2019-04-04T04:13:16.152Z,0.00
2019-04-04T04:14:12.011Z,0.00
2019-04-04T04:15:12.190Z,0.00
2019-04-04T04:16:12.372Z,0.00
2019-04-04T04:17:12.701Z,0.00
2019-04-04T04:18:12.726Z,0.00
2019-04-04T04:19:12.929Z,0.00
2019-04-04T04:20:13.092Z,0.00
2019-04-04T04:21:13.277Z,0.00
2019-04-04T04:22:17.925Z,0.00
2019-04-04T04:23:13.648Z,0.00
2019-04-04T04:24:13.828Z,0.00
2019-04-04T04:25:14.008Z,4.00
2019-04-04T04:26:14.185Z,0.00
2019-04-04T04:27:15.582Z,4.00
2019-04-04T04:28:14.558Z,4.00
2019-04-04T04:29:14.746Z,4.00
2019-04-04T04:30:14.922Z,8.00
2019-04-04T04:31:15.605Z,4.00
2019-04-04T04:32:15.299Z,4.00
2019-04-04T04:33:15.478Z,8.00
2019-04-04T04:34:15.657Z,8.00
2019-04-04T04:35:15.839Z,12.00
2019-04-04T04:36:16.551Z,16.00
2019-04-04T04:37:20.093Z,16.00
2019-04-04T04:38:16.380Z,20.00
2019-04-04T04:39:16.568Z,24.00
2019-04-04T04:40:16.750Z,24.00
2019-04-04T04:41:19.789Z,32.00
2019-04-04T04:42:17.117Z,40.00
2019-04-04T04:43:17.298Z,44.00
2019-04-04T04:44:17.478Z,56.00
2019-04-04T04:45:17.675Z,64.00
2019-04-04T04:46:18.080Z,68.00
2019-04-04T04:47:18.048Z,80.00
2019-04-04T04:48:18.221Z,84.00
2019-04-04T04:49:18.408Z,92.00
2019-04-04T04:50:18.591Z,96.00
2019-04-04T04:51:18.774Z,104.00
2019-04-04T04:52:18.991Z,120.00
2019-04-04T04:53:19.654Z,124.00
2019-04-04T04:54:20.426Z,132.00
2019-04-04T04:55:19.518Z,144.00
2019-04-04T04:56:19.709Z,152.00
2019-04-04T04:57:29.599Z,152.00
2019-04-04T04:58:20.073Z,144.00
2019-04-04T04:59:20.251Z,136.00
2019-04-04T05:00:20.434Z,132.00
2019-04-04T05:01:20.631Z,140.00
2019-04-04T05:02:22.354Z,152.00
2019-04-04T05:03:22.162Z,172.00
2019-04-04T05:04:21.180Z,192.00
2019-04-04T05:05:21.362Z,208.00
2019-04-04T05:06:21.546Z,220.00
2019-04-04T05:07:21.732Z,240.00
2019-04-04T05:08:21.912Z,264.00
2019-04-04T05:09:22.097Z,288.00
2019-04-04T05:10:22.278Z,312.00
2019-04-04T05:11:22.460Z,336.00
2019-04-04T05:12:22.643Z,368.00
2019-04-04T05:13:24.622Z,416.00
2019-04-04T05:14:23.696Z,468.00
2019-04-04T05:15:23.270Z,520.00
2019-04-04T05:16:23.457Z,548.00
2019-04-04T05:17:23.708Z,528.00
2019-04-04T05:18:23.826Z,488.00
2019-04-04T05:19:24.007Z,476.00
2019-04-04T05:20:25.551Z,504.00
2019-04-04T05:21:26.311Z,596.00
2019-04-04T05:22:24.546Z,684.00
2019-04-04T05:23:24.736Z,700.00
2019-04-04T05:24:24.926Z,656.00
2019-04-04T05:25:25.108Z,620.00
2019-04-04T05:26:25.295Z,608.00
2019-04-04T05:27:25.476Z,604.00
2019-04-04T05:28:25.660Z,604.00
2019-04-04T05:29:25.840Z,588.00
2019-04-04T05:30:26.032Z,572.00
2019-04-04T05:31:26.214Z,572.00
2019-04-04T05:32:26.407Z,588.00
2019-04-04T05:33:27.474Z,596.00
2019-04-04T05:34:28.300Z,592.00
2019-04-04T05:35:26.968Z,580.00
2019-04-04T05:36:27.154Z,588.00
2019-04-04T05:37:27.599Z,600.00
2019-04-04T05:38:27.522Z,612.00
2019-04-04T05:39:27.701Z,608.00
2019-04-04T05:40:30.620Z,608.00
2019-04-04T05:41:28.134Z,600.00
2019-04-04T05:42:28.264Z,600.00
2019-04-04T05:43:28.481Z,608.00
2019-04-04T05:44:28.636Z,628.00
2019-04-04T05:45:28.820Z,652.00
2019-04-04T05:46:29.017Z,692.00
2019-04-04T05:47:29.195Z,736.00
2019-04-04T05:48:29.718Z,784.00
2019-04-04T05:49:29.569Z,820.00
2019-04-04T05:50:29.754Z,836.00
2019-04-04T05:51:29.938Z,836.00
2019-04-04T05:52:32.292Z,840.00
2019-04-04T05:53:30.296Z,864.00
2019-04-04T05:54:30.488Z,892.00
2019-04-04T05:55:30.662Z,912.00
2019-04-04T05:56:30.857Z,920.00
2019-04-04T05:57:31.037Z,928.00
2019-04-04T05:58:31.232Z,944.00
2019-04-04T05:59:31.406Z,968.00
2019-04-04T06:00:31.601Z,1012.00
2019-04-04T06:01:34.917Z,1072.00
2019-04-04T06:02:31.953Z,1124.00
2019-04-04T06:03:32.160Z,1164.00
2019-04-04T06:04:32.330Z,1176.00
2019-04-04T06:05:32.503Z,1176.00
2019-04-04T06:06:33.375Z,1164.00
2019-04-04T06:07:34.231Z,1148.00
2019-04-04T06:08:33.072Z,1148.00
2019-04-04T06:09:33.245Z,1164.00
2019-04-04T06:10:33.415Z,1208.00
2019-04-04T06:11:33.599Z,1260.00
2019-04-04T06:12:33.783Z,1336.00
2019-04-04T06:13:33.962Z,1412.00
2019-04-04T06:14:34.159Z,1504.00
2019-04-04T06:15:34.334Z,1608.00
2019-04-04T06:16:35.029Z,1716.00
2019-04-04T06:17:34.704Z,1812.00
2019-04-04T06:18:35.012Z,1916.00
2019-04-04T06:19:35.016Z,2004.00
2019-04-04T06:20:35.197Z,2080.00
2019-04-04T06:21:35.378Z,2160.00
2019-04-04T06:22:35.562Z,2312.00
2019-04-04T06:23:35.817Z,2504.00
2019-04-04T06:24:35.899Z,2612.00
2019-04-04T06:25:36.084Z,2596.00
2019-04-04T06:26:38.208Z,2516.00
2019-04-04T06:27:39.818Z,2432.00
2019-04-04T06:28:36.605Z,2340.00
2019-04-04T06:29:36.798Z,2256.00
2019-04-04T06:30:42.945Z,2172.00
2019-04-04T06:31:37.376Z,2072.00
2019-04-04T06:32:38.955Z,1972.00
2019-04-04T06:33:37.741Z,1880.00
2019-04-04T06:34:37.747Z,1816.00
2019-04-04T06:35:39.770Z,1756.00
2019-04-04T06:36:38.067Z,1728.00
2019-04-04T06:37:38.791Z,1736.00
2019-04-04T06:38:38.311Z,1768.00
2019-04-04T06:39:38.604Z,1752.00
2019-04-04T06:40:38.668Z,1732.00
2019-04-04T06:41:38.853Z,1756.00
2019-04-04T06:42:39.034Z,1716.00
2019-04-04T06:43:41.452Z,1588.00
2019-04-04T06:44:39.407Z,1516.00
2019-04-04T06:45:39.604Z,1484.00
2019-04-04T06:46:39.782Z,1424.00
2019-04-04T06:47:39.970Z,1360.00
2019-04-04T06:48:40.151Z,1288.00
2019-04-04T06:49:40.351Z,1252.00
2019-04-04T06:50:43.045Z,1272.00
2019-04-04T06:51:40.736Z,1364.00
2019-04-04T06:52:41.021Z,1476.00
2019-04-04T06:53:41.217Z,1532.00
2019-04-04T06:54:41.351Z,1544.00
2019-04-04T06:55:41.530Z,1520.00
2019-04-04T06:56:41.717Z,1516.00
2019-04-04T06:57:41.900Z,1524.00
2019-04-04T06:58:42.080Z,1548.00
2019-04-04T06:59:43.197Z,1532.00
2019-04-04T07:00:42.447Z,1520.00
2019-04-04T07:01:42.642Z,1560.00
2019-04-04T07:02:42.829Z,1604.00
2019-04-04T07:03:43.027Z,1640.00
2019-04-04T07:04:43.201Z,1668.00
2019-04-04T07:05:43.380Z,1720.00
2019-04-04T07:06:43.563Z,1784.00
2019-04-04T07:07:44.106Z,1820.00
2019-04-04T07:08:45.152Z,1864.00
2019-04-04T07:09:44.121Z,1948.00
2019-04-04T07:10:44.294Z,2072.00
2019-04-04T07:11:44.493Z,2180.00
2019-04-04T07:12:44.682Z,2276.00
2019-04-04T07:13:44.865Z,2332.00
2019-04-04T07:14:46.379Z,2428.00
2019-04-04T07:15:48.371Z,2564.00
2019-04-04T07:16:45.423Z,2684.00
2019-04-04T07:17:45.595Z,2764.00
2019-04-04T07:18:45.774Z,2780.00
2019-04-04T07:19:46.777Z,2784.00
2019-04-04T07:20:48.419Z,2840.00
2019-04-04T07:21:46.343Z,2900.00
2019-04-04T07:22:46.521Z,3024.00
2019-04-04T07:23:46.702Z,3228.00
2019-04-04T07:24:46.901Z,3332.00
2019-04-04T07:25:47.087Z,3452.00
2019-04-04T07:26:47.282Z,3620.00
2019-04-04T07:27:48.033Z,3812.00
2019-04-04T07:28:50.115Z,4024.00
2019-04-04T07:29:47.843Z,4220.00
2019-04-04T07:30:48.029Z,4316.00
2019-04-04T07:31:48.211Z,4392.00
2019-04-04T07:32:48.392Z,4392.00
2019-04-04T07:33:48.578Z,4152.00
2019-04-04T07:34:48.763Z,3960.00
2019-04-04T07:35:49.479Z,3916.00
2019-04-04T07:36:51.210Z,3940.00
2019-04-04T07:37:53.434Z,4088.00
2019-04-04T07:38:49.528Z,4112.00
2019-04-04T07:39:50.162Z,4168.00
2019-04-04T07:40:49.899Z,4600.00
2019-04-04T07:41:50.090Z,4440.00
2019-04-04T07:42:50.270Z,4288.00
2019-04-04T07:43:51.653Z,4404.00
2019-04-04T07:44:50.636Z,4500.00
2019-04-04T07:45:50.820Z,4592.00
2019-04-04T07:46:51.010Z,4672.00
2019-04-04T07:47:51.191Z,4188.00
2019-04-04T07:48:52.170Z,4148.00
2019-04-04T07:49:53.170Z,4384.00
2019-04-04T07:50:51.747Z,4568.00
2019-04-04T07:51:51.927Z,4600.00
2019-04-04T07:52:52.113Z,4596.00
2019-04-04T07:53:52.295Z,4368.00
2019-04-04T07:54:52.485Z,4100.00
2019-04-04T07:55:52.670Z,3880.00
2019-04-04T07:56:52.846Z,3660.00
2019-04-04T07:57:53.057Z,3772.00
2019-04-04T07:58:53.853Z,4468.00
2019-04-04T07:59:53.746Z,4996.00
2019-04-04T08:00:53.564Z,4768.00
2019-04-04T08:01:53.748Z,4760.00
2019-04-04T08:02:54.116Z,4324.00
2019-04-04T08:03:54.148Z,4416.00
2019-04-04T08:04:54.333Z,4732.00
2019-04-04T08:05:54.395Z,4788.00
2019-04-04T08:06:54.660Z,4684.00
2019-04-04T08:07:54.724Z,4540.00
2019-04-04T08:08:55.533Z,4164.00
2019-04-04T08:09:55.151Z,4148.00
2019-04-04T08:10:55.330Z,4212.00
2019-04-04T08:11:55.514Z,4384.00
2019-04-04T08:12:55.720Z,4568.00
2019-04-04T08:13:55.901Z,4448.00
2019-04-04T08:14:56.089Z,4220.00
2019-04-04T08:15:56.283Z,4260.00
2019-04-04T08:16:56.709Z,3936.00
2019-04-04T08:17:56.645Z,3860.00
2019-04-04T08:18:56.887Z,3644.00
2019-04-04T08:19:59.830Z,3508.00
2019-04-04T08:20:57.201Z,3736.00
2019-04-04T08:21:57.404Z,3696.00
2019-04-04T08:22:57.577Z,3492.00
2019-04-04T08:23:57.861Z,3388.00
2019-04-04T08:24:57.891Z,3340.00
2019-04-04T08:25:58.153Z,3420.00
2019-04-04T08:26:58.227Z,3308.00
2019-04-04T08:27:58.417Z,3100.00
2019-04-04T08:28:58.617Z,3020.00
2019-04-04T08:29:58.795Z,3268.00
2019-04-04T08:30:58.981Z,3596.00
2019-04-04T08:31:59.160Z,3612.00
2019-04-04T08:32:59.360Z,3712.00
2019-04-04T08:33:59.545Z,3476.00
2019-04-04T08:34:59.733Z,3696.00
2019-04-04T08:36:05.935Z,4132.00
2019-04-04T08:37:00.100Z,3784.00
2019-04-04T08:38:00.285Z,3572.00
2019-04-04T08:39:00.472Z,3680.00
2019-04-04T08:40:00.654Z,4600.00
2019-04-04T08:41:00.838Z,5060.00
2019-04-04T08:42:01.032Z,4616.00
2019-04-04T08:43:01.216Z,3544.00
2019-04-04T08:44:01.400Z,3320.00
2019-04-04T08:45:01.590Z,4088.00
2019-04-04T08:46:01.793Z,4376.00
2019-04-04T08:47:01.966Z,4612.00
2019-04-04T08:48:02.154Z,4520.00
2019-04-04T08:49:02.344Z,4140.00
2019-04-04T08:50:02.535Z,4016.00
2019-04-04T08:51:02.722Z,4112.00
2019-04-04T08:52:02.909Z,4084.00
2019-04-04T08:53:03.075Z,4016.00
2019-04-04T08:54:03.276Z,4144.00
2019-04-04T08:55:03.464Z,3648.00
2019-04-04T08:56:03.655Z,3192.00
2019-04-04T08:57:03.848Z,3064.00
2019-04-04T08:58:04.031Z,2940.00
2019-04-04T08:59:04.215Z,2828.00
2019-04-04T09:00:04.402Z,3080.00
2019-04-04T09:01:04.600Z,3944.00
2019-04-04T09:02:04.785Z,4192.00
2019-04-04T09:03:04.972Z,3788.00
2019-04-04T09:04:05.158Z,3516.00
2019-04-04T09:05:11.720Z,3484.00
2019-04-04T09:06:05.531Z,3296.00
2019-04-04T09:07:05.706Z,3304.00
2019-04-04T09:08:05.894Z,3376.00
2019-04-04T09:09:06.065Z,3316.00
2019-04-04T09:10:06.282Z,3372.00
2019-04-04T09:11:06.469Z,3460.00
2019-04-04T09:12:06.653Z,3624.00
2019-04-04T09:13:06.839Z,3872.00
2019-04-04T09:14:07.028Z,4188.00
2019-04-04T09:15:07.210Z,4644.00
2019-04-04T09:16:07.402Z,5592.00
2019-04-04T09:17:07.589Z,5396.00
2019-04-04T09:18:07.776Z,5740.00
2019-04-04T09:19:07.963Z,6096.00
2019-04-04T09:20:09.633Z,5888.00
2019-04-04T09:21:08.338Z,5520.00
2019-04-04T09:22:10.809Z,5492.00
2019-04-04T09:23:08.711Z,5616.00
2019-04-04T09:24:08.897Z,5208.00
2019-04-04T09:25:10.685Z,4512.00
2019-04-04T09:26:09.276Z,4144.00
2019-04-04T09:27:09.457Z,4072.00
2019-04-04T09:28:09.642Z,4312.00
2019-04-04T09:29:09.838Z,4104.00
2019-04-04T09:30:10.019Z,3988.00
2019-04-04T09:31:10.207Z,4296.00
2019-04-04T09:32:10.389Z,4504.00
2019-04-04T09:33:10.630Z,4248.00
2019-04-04T09:34:10.762Z,4168.00
2019-04-04T09:35:10.958Z,4168.00
2019-04-04T09:36:11.140Z,4316.00
2019-04-04T09:37:11.324Z,4352.00
2019-04-04T09:38:11.516Z,4280.00
2019-04-04T09:39:11.704Z,4260.00
2019-04-04T09:40:11.906Z,4200.00
2019-04-04T09:41:12.090Z,4020.00
2019-04-04T09:42:12.285Z,3920.00
2019-04-04T09:43:12.466Z,3872.00
2019-04-04T09:44:12.658Z,3792.00
2019-04-04T09:45:12.831Z,3796.00
2019-04-04T09:46:13.029Z,3828.00
2019-04-04T09:47:13.215Z,3916.00
2019-04-04T09:48:13.394Z,3904.00
2019-04-04T09:49:13.578Z,3932.00
2019-04-04T09:50:13.768Z,3976.00
2019-04-04T09:51:13.952Z,3996.00
2019-04-04T09:52:14.142Z,4080.00
2019-04-04T09:53:14.330Z,4044.00
2019-04-04T09:54:14.514Z,3960.00
2019-04-04T09:55:14.696Z,3888.00
2019-04-04T09:56:14.887Z,3940.00
2019-04-04T09:57:15.073Z,4008.00
2019-04-04T09:58:15.254Z,3728.00
2019-04-04T09:59:15.454Z,3656.00
2019-04-04T10:00:15.635Z,3676.00
2019-04-04T10:01:15.826Z,3564.00
2019-04-04T10:02:16.003Z,3420.00
2019-04-04T10:03:16.188Z,3464.00
2019-04-04T10:04:16.376Z,3480.00
2019-04-04T10:05:16.563Z,3440.00
2019-04-04T10:06:16.757Z,3536.00
2019-04-04T10:07:16.946Z,3608.00
2019-04-04T10:08:17.128Z,3612.00
2019-04-04T10:09:17.318Z,3748.00
2019-04-04T10:10:17.498Z,3880.00
2019-04-04T10:11:17.713Z,3816.00
2019-04-04T10:12:17.882Z,3624.00
2019-04-04T10:13:18.068Z,3588.00
2019-04-04T10:14:18.251Z,3692.00
2019-04-04T10:15:18.435Z,3760.00
2019-04-04T10:16:18.614Z,3804.00
2019-04-04T10:17:18.806Z,3788.00
2019-04-04T10:18:18.997Z,3716.00
2019-04-04T10:19:19.187Z,3684.00
2019-04-04T10:20:19.392Z,3656.00
2019-04-04T10:21:19.576Z,3584.00
2019-04-04T10:22:19.756Z,3468.00
2019-04-04T10:23:19.973Z,3296.00
2019-04-04T10:24:20.127Z,3200.00
2019-04-04T10:25:20.311Z,3116.00
2019-04-04T10:26:20.599Z,3076.00
2019-04-04T10:27:20.682Z,3024.00
2019-04-04T10:28:23.367Z,2952.00
2019-04-04T10:29:21.056Z,3020.00
2019-04-04T10:30:21.237Z,3028.00
2019-04-04T10:31:21.417Z,2932.00
2019-04-04T10:32:21.606Z,2956.00
2019-04-04T10:33:21.800Z,2988.00
2019-04-04T10:34:21.975Z,3028.00
2019-04-04T10:35:22.164Z,3176.00
2019-04-04T10:36:22.343Z,3332.00
2019-04-04T10:37:22.533Z,3392.00
2019-04-04T10:38:22.716Z,3548.00
2019-04-04T10:39:28.674Z,3700.00
2019-04-04T10:40:23.089Z,3928.00
2019-04-04T10:41:23.278Z,4180.00
2019-04-04T10:42:23.464Z,4268.00
2019-04-04T10:43:23.652Z,4288.00
2019-04-04T10:44:24.224Z,4068.00
2019-04-04T10:45:24.030Z,3948.00
2019-04-04T10:46:24.217Z,4036.00
2019-04-04T10:47:24.409Z,4180.00
2019-04-04T10:48:24.587Z,4268.00
2019-04-04T10:49:24.784Z,4352.00
2019-04-04T10:50:24.957Z,4284.00
2019-04-04T10:51:25.136Z,4220.00
2019-04-04T10:52:25.321Z,4200.00
2019-04-04T10:53:25.500Z,4116.00
2019-04-04T10:54:25.688Z,4164.00
2019-04-04T10:55:25.875Z,4256.00
2019-04-04T10:56:26.064Z,4344.00
2019-04-04T10:57:26.235Z,4500.00
2019-04-04T10:58:26.423Z,4564.00
2019-04-04T10:59:26.621Z,4848.00
2019-04-04T11:00:26.804Z,5372.00
2019-04-04T11:01:26.991Z,5400.00
2019-04-04T11:02:27.187Z,5344.00
2019-04-04T11:03:27.373Z,5220.00
2019-04-04T11:04:27.562Z,4952.00
2019-04-04T11:05:27.749Z,4772.00
2019-04-04T11:06:27.940Z,4960.00
2019-04-04T11:07:28.124Z,5064.00
2019-04-04T11:08:28.308Z,5060.00
2019-04-04T11:09:40.888Z,4992.00
2019-04-04T11:10:28.687Z,5136.00
2019-04-04T11:11:28.869Z,5256.00
2019-04-04T11:12:29.067Z,5232.00
2019-04-04T11:13:33.816Z,5172.00
2019-04-04T11:14:29.442Z,4988.00
2019-04-04T11:15:29.623Z,4996.00
2019-04-04T11:16:30.688Z,5296.00
2019-04-04T11:17:30.009Z,5420.00
2019-04-04T11:18:30.180Z,5760.00
2019-04-04T11:19:31.557Z,6288.00
2019-04-04T11:20:30.559Z,5872.00
2019-04-04T11:21:30.747Z,5840.00
2019-04-04T11:22:30.931Z,5512.00
2019-04-04T11:23:31.119Z,5436.00
2019-04-04T11:24:31.315Z,6572.00
2019-04-04T11:25:31.496Z,6776.00
2019-04-04T11:26:31.684Z,5644.00
2019-04-04T11:27:31.872Z,4960.00
2019-04-04T11:28:32.056Z,5648.00
2019-04-04T11:29:32.237Z,5572.00
2019-04-04T11:30:32.426Z,5172.00
2019-04-04T11:31:32.677Z,5876.00
2019-04-04T11:32:32.793Z,5444.00
2019-04-04T11:33:32.981Z,5268.00
2019-04-04T11:34:33.160Z,5200.00
2019-04-04T11:35:33.354Z,5240.00
2019-04-04T11:36:33.539Z,5592.00
2019-04-04T11:37:33.735Z,5672.00
2019-04-04T11:38:33.908Z,5792.00
2019-04-04T11:39:34.115Z,6252.00
2019-04-04T11:40:34.303Z,5980.00
2019-04-04T11:41:34.485Z,5872.00
2019-04-04T11:42:34.671Z,5296.00
2019-04-04T11:43:34.858Z,4712.00
2019-04-04T11:44:35.047Z,4396.00
2019-04-04T11:45:35.230Z,4300.00
2019-04-04T11:46:35.420Z,4320.00
2019-04-04T11:47:35.604Z,4444.00
2019-04-04T11:48:35.799Z,4468.00
2019-04-04T11:49:35.979Z,4416.00
2019-04-04T11:50:36.162Z,4564.00
2019-04-04T11:51:36.347Z,4872.00
2019-04-04T11:52:36.538Z,5140.00
2019-04-04T11:53:36.722Z,5296.00
2019-04-04T11:54:36.909Z,5320.00
2019-04-04T11:55:37.098Z,5156.00
2019-04-04T11:56:37.292Z,5012.00
2019-04-04T11:57:37.478Z,4872.00
2019-04-04T11:58:37.667Z,4744.00
2019-04-04T11:59:38.313Z,4776.00
2019-04-04T12:00:38.023Z,4892.00
2019-04-04T12:01:38.223Z,5100.00
2019-04-04T12:02:38.409Z,5492.00
2019-04-04T12:03:38.610Z,5900.00
2019-04-04T12:04:38.788Z,5964.00
2019-04-04T12:05:38.987Z,5808.00
2019-04-04T12:06:39.169Z,5600.00
2019-04-04T12:07:39.365Z,5360.00
2019-04-04T12:08:39.550Z,5164.00
2019-04-04T12:09:39.737Z,5116.00
2019-04-04T12:10:39.925Z,5220.00
2019-04-04T12:11:40.106Z,5392.00
2019-04-04T12:12:40.293Z,5332.00
2019-04-04T12:13:40.478Z,5000.00
2019-04-04T12:14:40.675Z,4708.00
2019-04-04T12:15:40.858Z,4652.00
2019-04-04T12:16:41.049Z,4828.00
2019-04-04T12:17:41.241Z,5012.00
2019-04-04T12:18:41.432Z,4952.00
2019-04-04T12:19:41.616Z,4788.00
2019-04-04T12:20:43.289Z,4544.00
2019-04-04T12:21:42.004Z,4340.00
2019-04-04T12:22:42.186Z,4120.00
2019-04-04T12:23:42.387Z,3948.00
2019-04-04T12:24:42.553Z,3840.00
2019-04-04T12:25:42.736Z,3824.00
2019-04-04T12:26:42.937Z,3860.00
2019-04-04T12:27:43.113Z,3900.00
2019-04-04T12:28:43.300Z,3968.00
2019-04-04T12:29:43.485Z,4124.00
2019-04-04T12:30:43.669Z,4276.00
2019-04-04T12:31:43.842Z,4368.00
2019-04-04T12:32:44.027Z,4544.00
2019-04-04T12:33:44.212Z,4940.00
2019-04-04T12:34:44.402Z,5288.00
2019-04-04T12:35:44.596Z,5176.00